Time;durP1;ratioP1;P1;durP2;ratioP2;P2;SDS_P1;SDS_P2;PMS_P1;PMS_P2;Temp;Humidity;BMP_temperature;BMP_pressure;BME280_temperature;BME280_humidity;BME280_pressure;Samples;Min_cycle;Max_cycle;Signal;HPM_P1;HPM_P2
2021/04/16 00:00:21;;;;;;;6.97;2.20;;;8.60;67.30;;;;;;4942310;28;20055;-64
2021/04/16 00:02:47;;;;;;;18.33;5.40;;;8.50;68.10;;;;;;4940476;28;20054;-64
2021/04/16 00:05:14;;;;;;;10.63;2.50;;;8.50;68.80;;;;;;4940127;28;20047;-64
2021/04/16 00:07:39;;;;;;;8.15;2.42;;;8.70;69.20;;;;;;4941309;28;20097;-70
2021/04/16 00:10:09;;;;;;;12.10;3.45;;;9.00;68.10;;;;;;4940616;28;20468;-68
2021/04/16 00:12:35;;;;;;;11.73;2.92;;;9.20;67.60;;;;;;4941498;28;20066;-67
2021/04/16 00:15:03;;;;;;;7.43;1.90;;;9.40;67.50;;;;;;4939223;28;20032;-68
2021/04/16 00:17:29;;;;;;;9.35;2.33;;;9.40;66.70;;;;;;4941286;28;20066;-68
2021/04/16 00:19:54;;;;;;;8.23;3.08;;;9.30;66.40;;;;;;4941604;28;20062;-69
2021/04/16 00:22:20;;;;;;;8.48;3.10;;;9.20;67.20;;;;;;4942179;28;20054;-67
2021/04/16 00:24:47;;;;;;;8.45;3.55;;;9.30;67.20;;;;;;4940391;28;20044;-71
2021/04/16 00:27:13;;;;;;;8.30;3.03;;;9.20;67.60;;;;;;4941065;28;20043;-69
2021/04/16 00:29:39;;;;;;;8.70;3.50;;;9.20;67.90;;;;;;4940172;28;20480;-69
2021/04/16 00:32:05;;;;;;;9.45;3.90;;;9.10;67.70;;;;;;4940751;28;20039;-73
2021/04/16 00:34:31;;;;;;;9.20;2.88;;;9.10;68.40;;;;;;4941560;28;20043;-66
2021/04/16 00:36:56;;;;;;;13.30;4.40;;;9.10;67.90;;;;;;4940676;28;20035;-66
2021/04/16 00:39:24;;;;;;;12.60;3.65;;;9.10;68.10;;;;;;4941810;28;20039;-66
2021/04/16 00:41:51;;;;;;;10.85;3.90;;;9.20;67.70;;;;;;4946181;28;20054;-67
2021/04/16 00:44:17;;;;;;;9.15;2.80;;;9.20;67.40;;;;;;4943059;28;20083;-66
2021/04/16 00:46:58;;;;;;;11.40;3.33;;;9.30;67.80;;;;;;4957693;28;20039;-67
2021/04/16 00:49:29;;;;;;;10.50;3.65;;;9.40;67.30;;;;;;4944044;28;20388;-67
2021/04/16 00:52:02;;;;;;;11.05;3.13;;;9.40;66.90;;;;;;4945321;28;20061;-66
2021/04/16 00:54:33;;;;;;;12.85;3.92;;;9.30;67.10;;;;;;4943545;28;20039;-66
2021/04/16 00:57:00;;;;;;;6.97;2.92;;;9.40;68.10;;;;;;4943132;28;20035;-66
2021/04/16 00:59:29;;;;;;;10.63;4.00;;;9.50;67.90;;;;;;4944531;28;20640;-66
2021/04/16 01:02:00;;;;;;;7.93;3.75;;;9.60;67.80;;;;;;4945273;28;20043;-66
2021/04/16 01:04:28;;;;;;;11.38;4.32;;;9.80;67.70;;;;;;4943488;28;20526;-66
2021/04/16 01:06:55;;;;;;;9.77;4.28;;;10.00;68.80;;;;;;4943782;28;20053;-67
2021/04/16 01:09:21;;;;;;;11.18;4.50;;;10.20;69.60;;;;;;4944176;28;20035;-67
2021/04/16 01:11:46;;;;;;;9.75;4.55;;;10.40;69.60;;;;;;4944007;28;20436;-67
2021/04/16 01:14:13;;;;;;;8.50;3.83;;;10.70;69.50;;;;;;4944486;28;20043;-67
2021/04/16 01:16:39;;;;;;;7.72;2.72;;;10.90;68.30;;;;;;4942841;28;20043;-67
2021/04/16 01:19:14;;;;;;;8.45;2.88;;;10.80;66.70;;;;;;4944611;28;20079;-67
2021/04/16 01:21:46;;;;;;;8.00;3.63;;;10.80;66.10;;;;;;4944438;28;20702;-66
2021/04/16 01:24:20;;;;;;;11.82;3.60;;;10.80;67.20;;;;;;4943997;28;20122;-67
2021/04/16 01:26:47;;;;;;;12.90;4.03;;;10.80;67.30;;;;;;4943121;28;20063;-67
2021/04/16 01:29:13;;;;;;;11.52;4.47;;;10.90;66.50;;;;;;4943755;28;20099;-67
2021/04/16 01:31:47;;;;;;;10.90;3.15;;;11.10;66.70;;;;;;4943090;28;20035;-67
2021/04/16 01:34:23;;;;;;;11.73;3.47;;;11.30;65.40;;;;;;4943866;28;20062;-67
2021/04/16 01:36:57;;;;;;;9.55;3.42;;;11.40;65.10;;;;;;4943810;28;20039;-67
2021/04/16 01:39:26;;;;;;;8.50;3.78;;;11.40;64.80;;;;;;4944061;28;20118;-66
2021/04/16 01:41:52;;;;;;;8.68;3.85;;;11.30;65.30;;;;;;4941424;28;20484;-66
2021/04/16 01:44:22;;;;;;;6.43;2.35;;;11.20;65.10;;;;;;4944738;28;20044;-66
2021/04/16 01:47:04;;;;;;;7.20;2.53;;;11.00;64.90;;;;;;4942862;28;20383;-69
2021/04/16 01:49:34;;;;;;;10.82;2.28;;;10.70;63.70;;;;;;4943029;28;20949;-67
2021/04/16 01:52:00;;;;;;;6.97;3.40;;;10.30;64.30;;;;;;4941826;28;20059;-67
2021/04/16 01:54:35;;;;;;;9.52;2.53;;;9.90;65.90;;;;;;4943814;28;20133;-66
2021/04/16 01:57:08;;;;;;;8.20;2.45;;;9.80;66.90;;;;;;4941859;28;20118;-66
2021/04/16 01:59:36;;;;;;;8.32;3.33;;;9.80;67.40;;;;;;4943104;28;20238;-66
2021/04/16 02:02:05;;;;;;;6.28;2.10;;;9.70;67.40;;;;;;4943412;28;20039;-66
2021/04/16 02:04:31;;;;;;;8.57;2.22;;;9.50;66.80;;;;;;4944316;28;20035;-65
2021/04/16 02:06:57;;;;;;;7.38;3.03;;;9.50;67.60;;;;;;4941053;28;20075;-66
2021/04/16 02:09:28;;;;;;;9.55;2.40;;;9.60;67.90;;;;;;4942320;28;20063;-66
2021/04/16 02:11:55;;;;;;;6.20;2.47;;;9.70;67.90;;;;;;4942940;28;20035;-66
2021/04/16 02:14:24;;;;;;;13.35;2.78;;;9.60;68.10;;;;;;4943562;28;20043;-66
2021/04/16 02:16:53;;;;;;;9.13;2.15;;;9.60;67.50;;;;;;4944428;28;20455;-67
2021/04/16 02:19:19;;;;;;;10.13;2.47;;;9.50;66.90;;;;;;4943269;28;20027;-66
2021/04/16 02:21:45;;;;;;;7.13;2.00;;;9.50;67.80;;;;;;4944252;28;20075;-66
2021/04/16 02:24:12;;;;;;;11.27;2.08;;;9.50;67.60;;;;;;4948154;28;20036;-66
2021/04/16 02:26:39;;;;;;;7.03;2.75;;;9.50;67.00;;;;;;4942418;28;20036;-66
2021/04/16 02:29:06;;;;;;;15.15;4.40;;;9.50;69.10;;;;;;4942657;28;20065;-66
2021/04/16 02:31:32;;;;;;;8.75;2.17;;;9.80;70.30;;;;;;4942885;28;20031;-66
2021/04/16 02:33:59;;;;;;;7.28;1.95;;;10.00;68.80;;;;;;4942382;28;20480;-67
2021/04/16 02:36:25;;;;;;;5.80;2.55;;;10.10;67.30;;;;;;4943050;28;20047;-66
2021/04/16 02:38:54;;;;;;;6.70;3.03;;;10.20;68.80;;;;;;4941924;28;20035;-66
2021/04/16 02:41:21;;;;;;;7.15;2.70;;;10.70;69.60;;;;;;4943087;28;20051;-66
2021/04/16 02:43:48;;;;;;;8.40;3.25;;;11.20;68.00;;;;;;4945940;28;20066;-67
2021/04/16 02:46:14;;;;;;;5.53;2.50;;;11.60;67.20;;;;;;4946833;28;20039;-66
2021/04/16 02:48:40;;;;;;;7.40;2.63;;;11.90;66.80;;;;;;4941975;28;20050;-67
2021/04/16 02:51:06;;;;;;;7.13;3.53;;;12.30;66.10;;;;;;4942332;28;20042;-67
2021/04/16 02:53:31;;;;;;;8.75;2.70;;;12.70;65.30;;;;;;4941885;28;20043;-65
2021/04/16 02:55:58;;;;;;;7.63;2.42;;;13.00;64.30;;;;;;4942657;28;20051;-65
2021/04/16 02:58:24;;;;;;;7.25;2.95;;;13.10;62.10;;;;;;4955820;28;20192;-65
2021/04/16 03:00:49;;;;;;;8.15;3.15;;;12.90;61.50;;;;;;4942003;28;20578;-67
2021/04/16 03:03:15;;;;;;;6.68;2.25;;;12.80;63.00;;;;;;4940486;28;20049;-66
2021/04/16 03:05:41;;;;;;;8.50;2.55;;;12.80;62.30;;;;;;4957265;28;20047;-66
2021/04/16 03:08:07;;;;;;;5.38;2.28;;;13.00;62.50;;;;;;4922840;28;20122;-66
2021/04/16 03:10:35;;;;;;;7.45;2.55;;;12.90;61.60;;;;;;4941965;28;20114;-66
2021/04/16 03:13:02;;;;;;;5.15;2.58;;;12.80;62.80;;;;;;4942045;28;20443;-66
2021/04/16 03:15:28;;;;;;;5.72;2.00;;;12.60;63.20;;;;;;4956708;28;20054;-66
2021/04/16 03:17:53;;;;;;;7.35;2.72;;;12.40;63.10;;;;;;4941824;28;20487;-66
2021/04/16 03:20:21;;;;;;;7.82;2.35;;;12.10;63.30;;;;;;4940892;28;20040;-66
2021/04/16 03:22:47;;;;;;;11.57;3.10;;;12.00;63.90;;;;;;4942101;28;20118;-66
2021/04/16 03:25:14;;;;;;;6.28;2.50;;;11.80;63.80;;;;;;4942703;28;20090;-66
2021/04/16 03:27:40;;;;;;;5.82;1.88;;;11.60;64.20;;;;;;4940555;28;20105;-66
2021/04/16 03:30:12;;;;;;;8.05;2.83;;;11.60;65.80;;;;;;4941254;28;20070;-66
2021/04/16 03:32:37;;;;;;;5.78;3.00;;;11.90;65.90;;;;;;4941231;28;20515;-66
2021/04/16 03:35:04;;;;;;;6.43;2.45;;;12.00;65.60;;;;;;4954713;28;20085;-66
2021/04/16 03:37:30;;;;;;;4.50;2.20;;;12.20;65.30;;;;;;4939065;28;20043;-66
2021/04/16 03:39:56;;;;;;;5.43;2.30;;;12.50;65.10;;;;;;4941326;28;20182;-66
2021/04/16 03:42:22;;;;;;;6.30;2.72;;;12.80;64.40;;;;;;4941959;28;20055;-66
2021/04/16 03:44:47;;;;;;;4.95;2.22;;;13.10;63.50;;;;;;4941534;28;20036;-66
2021/04/16 03:47:14;;;;;;;6.47;1.90;;;13.20;62.40;;;;;;4942598;28;20422;-66
2021/04/16 03:49:39;;;;;;;5.32;2.30;;;13.30;61.60;;;;;;4940334;28;20049;-66
2021/04/16 03:52:05;;;;;;;5.35;2.53;;;13.30;61.70;;;;;;4940241;28;20036;-66
2021/04/16 03:54:33;;;;;;;6.90;3.30;;;13.30;61.30;;;;;;4940776;28;20046;-67
2021/04/16 03:57:00;;;;;;;11.70;2.83;;;13.20;61.50;;;;;;4941747;28;20035;-67
2021/04/16 03:59:26;;;;;;;4.88;1.85;;;13.20;62.00;;;;;;4941245;28;20051;-66
2021/04/16 04:01:52;;;;;;;4.22;1.95;;;13.30;61.70;;;;;;4940218;28;20083;-66
2021/04/16 04:04:21;;;;;;;3.60;1.73;;;13.30;61.60;;;;;;4941233;28;20039;-66
2021/04/16 04:06:48;;;;;;;5.47;2.72;;;13.30;61.80;;;;;;4942314;28;20135;-66
2021/04/16 04:09:15;;;;;;;4.63;2.25;;;13.40;62.00;;;;;;4954267;28;20055;-66
2021/04/16 04:11:41;;;;;;;8.30;2.45;;;13.50;61.70;;;;;;4940507;28;20035;-65
2021/04/16 04:14:07;;;;;;;5.88;2.08;;;13.60;60.90;;;;;;4940794;28;20109;-65
2021/04/16 04:16:58;;;;;;;7.13;2.15;;;13.60;60.80;;;;;;4940325;28;20035;-62
2021/04/16 04:19:27;;;;;;;6.53;1.45;;;13.60;60.50;;;;;;4941017;28;20070;-62
2021/04/16 04:21:55;;;;;;;3.42;1.27;;;13.50;59.80;;;;;;4940377;28;20522;-62
2021/04/16 04:24:21;;;;;;;3.28;1.27;;;13.30;60.50;;;;;;4941239;28;20056;-62
2021/04/16 04:26:47;;;;;;;4.85;2.35;;;13.30;61.00;;;;;;4941874;28;20043;-62
2021/04/16 04:29:16;;;;;;;6.90;2.22;;;13.30;60.90;;;;;;4940788;28;20130;-63
2021/04/16 04:31:48;;;;;;;3.42;1.75;;;13.40;60.50;;;;;;4940536;28;20051;-68
2021/04/16 04:34:25;;;;;;;9.43;1.88;;;13.50;60.50;;;;;;4940867;28;20050;-66
2021/04/16 04:36:53;;;;;;;6.78;2.25;;;13.60;60.10;;;;;;4940212;28;20421;-65
2021/04/16 04:39:21;;;;;;;5.88;2.00;;;13.60;60.30;;;;;;4940742;28;20069;-63
2021/04/16 04:41:47;;;;;;;7.35;1.85;;;13.50;60.40;;;;;;4939135;28;20542;-63
2021/04/16 04:44:13;;;;;;;11.60;1.42;;;13.30;59.60;;;;;;4954069;28;20039;-63
2021/04/16 04:46:39;;;;;;;6.57;2.85;;;13.00;59.00;;;;;;4941173;28;20090;-63
2021/04/16 04:49:07;;;;;;;4.88;1.73;;;12.80;60.50;;;;;;4940423;28;20039;-65
2021/04/16 04:51:34;;;;;;;6.32;2.00;;;12.70;61.00;;;;;;4921580;28;20043;-63
2021/04/16 04:54:00;;;;;;;4.07;1.80;;;12.40;60.90;;;;;;4921079;28;20051;-63
2021/04/16 04:56:26;;;;;;;3.83;1.40;;;12.10;62.50;;;;;;4937091;28;20036;-64
2021/04/16 04:58:52;;;;;;;7.53;2.30;;;12.10;63.60;;;;;;4953389;28;20443;-63
2021/04/16 05:01:19;;;;;;;5.78;2.03;;;12.20;63.60;;;;;;4942091;28;20050;-63
2021/04/16 05:03:44;;;;;;;8.70;2.00;;;12.30;63.90;;;;;;4940498;28;20050;-63
2021/04/16 05:06:10;;;;;;;7.07;1.80;;;12.50;63.70;;;;;;4953636;28;20035;-63
2021/04/16 05:08:36;;;;;;;8.23;1.65;;;12.60;61.80;;;;;;4955854;28;20047;-63
2021/04/16 05:11:03;;;;;;;4.03;2.17;;;12.30;61.50;;;;;;4939056;28;20499;-63
2021/04/16 05:13:29;;;;;;;9.52;1.65;;;11.90;62.60;;;;;;4939990;28;20130;-63
2021/04/16 05:15:55;;;;;;;8.23;1.83;;;11.50;63.30;;;;;;4940158;28;20120;-63
2021/04/16 05:18:21;;;;;;;8.77;2.50;;;11.20;64.30;;;;;;4953721;28;20130;-63
2021/04/16 05:20:47;;;;;;;5.80;1.52;;;11.00;64.90;;;;;;4940479;28;20074;-63
2021/04/16 05:23:13;;;;;;;9.52;1.80;;;11.00;65.80;;;;;;4939334;28;20387;-63
2021/04/16 05:25:39;;;;;;;5.32;1.42;;;11.00;66.40;;;;;;4940414;28;20058;-63
2021/04/16 05:28:05;;;;;;;9.65;2.10;;;10.90;66.20;;;;;;4944643;28;20126;-63
2021/04/16 05:30:32;;;;;;;8.10;1.50;;;10.90;66.40;;;;;;4944280;28;20035;-63
2021/04/16 05:32:58;;;;;;;10.38;2.03;;;10.80;66.90;;;;;;4943205;28;20102;-63
2021/04/16 05:35:24;;;;;;;9.90;1.73;;;10.60;66.90;;;;;;4943247;28;20043;-65
2021/04/16 05:37:51;;;;;;;7.38;1.40;;;10.60;67.20;;;;;;4944210;28;20407;-63
2021/04/16 05:40:17;;;;;;;10.98;1.77;;;10.40;67.10;;;;;;4943897;28;20035;-65
2021/04/16 05:42:42;;;;;;;10.35;1.10;;;10.20;67.50;;;;;;4943394;28;20509;-64
2021/04/16 05:45:09;;;;;;;4.90;1.48;;;10.20;68.10;;;;;;4941977;28;20043;-64
2021/04/16 05:47:35;;;;;;;7.47;1.63;;;10.30;68.40;;;;;;4957578;28;20479;-64
2021/04/16 05:50:01;;;;;;;7.82;2.25;;;10.50;67.90;;;;;;4945335;28;20036;-64
2021/04/16 05:52:27;;;;;;;8.02;2.00;;;10.50;67.30;;;;;;4942698;28;20043;-64
2021/04/16 05:54:53;;;;;;;6.40;1.52;;;10.50;67.20;;;;;;4942971;28;20047;-64
2021/04/16 05:57:19;;;;;;;5.90;1.80;;;10.50;67.90;;;;;;4943361;28;20522;-64
2021/04/16 05:59:45;;;;;;;7.28;1.70;;;10.50;68.10;;;;;;4944427;28;20054;-63
2021/04/16 06:02:24;;;;;;;11.20;2.03;;;10.50;67.90;;;;;;4943055;28;20126;-64
2021/04/16 06:04:50;;;;;;;6.75;1.58;;;10.60;67.80;;;;;;4955792;28;20090;-64
2021/04/16 06:07:15;;;;;;;9.10;1.98;;;10.60;68.20;;;;;;4943399;28;20525;-67
2021/04/16 06:09:41;;;;;;;7.95;1.70;;;10.70;67.90;;;;;;4957619;28;20031;-67
2021/04/16 06:12:08;;;;;;;9.30;1.58;;;10.90;67.90;;;;;;4943252;28;20039;-73
2021/04/16 06:14:34;;;;;;;7.88;1.52;;;11.20;67.20;;;;;;4943756;28;20046;-67
2021/04/16 06:17:00;;;;;;;9.18;1.25;;;11.40;66.20;;;;;;4943208;28;20039;-66
2021/04/16 06:19:26;;;;;;;9.32;2.08;;;11.70;66.40;;;;;;4943026;28;20038;-67
2021/04/16 06:21:51;;;;;;;10.23;2.28;;;12.00;65.80;;;;;;4943201;28;22310;-67
2021/04/16 06:24:17;;;;;;;8.20;2.17;;;12.20;65.10;;;;;;4955375;28;20467;-67
2021/04/16 06:26:43;;;;;;;10.35;2.47;;;12.30;64.30;;;;;;4930636;28;20035;-63
2021/04/16 06:29:09;;;;;;;9.43;2.38;;;12.60;64.00;;;;;;4957768;28;20035;-66
2021/04/16 06:31:35;;;;;;;8.90;2.95;;;13.00;63.40;;;;;;4942412;28;20049;-63
2021/04/16 06:34:01;;;;;;;10.38;2.55;;;13.50;60.90;;;;;;4942633;28;20114;-67
2021/04/16 06:36:27;;;;;;;10.02;3.22;;;13.60;58.90;;;;;;4955656;28;20043;-67
2021/04/16 06:38:53;;;;;;;12.85;2.25;;;13.50;58.20;;;;;;4942492;28;20043;-67
2021/04/16 06:41:21;;;;;;;7.68;1.95;;;13.40;57.80;;;;;;4942717;28;20051;-67
2021/04/16 06:43:51;;;;;;;9.77;3.17;;;13.40;57.80;;;;;;4955391;28;20044;-66
2021/04/16 06:46:37;;;;;;;9.30;2.60;;;13.40;57.70;;;;;;4943147;28;20105;-67
2021/04/16 06:49:17;;;;;;;9.23;1.45;;;13.40;57.40;;;;;;4943601;28;20640;-66
2021/04/16 06:52:06;;;;;;;5.60;1.63;;;13.30;56.90;;;;;;4942096;28;20039;-67
2021/04/16 06:54:51;;;;;;;5.70;1.63;;;13.40;56.80;;;;;;4942151;28;20169;-67
2021/04/16 06:57:37;;;;;;;7.43;2.00;;;13.40;56.60;;;;;;4940877;28;20039;-65
2021/04/16 07:00:14;;;;;;;3.63;1.45;;;13.60;55.60;;;;;;4943515;28;20050;-68
2021/04/16 07:02:49;;;;;;;6.55;1.75;;;13.70;55.30;;;;;;4943507;28;20078;-68
2021/04/16 07:05:27;;;;;;;4.47;1.48;;;13.90;54.50;;;;;;4942507;28;20063;-70
2021/04/16 07:07:54;;;;;;;6.07;1.38;;;14.20;53.80;;;;;;4941051;28;20047;-70
2021/04/16 07:10:33;;;;;;;9.63;1.85;;;14.30;52.70;;;;;;4954762;28;20392;-70
2021/04/16 07:13:01;;;;;;;6.43;1.75;;;14.20;52.10;;;;;;4941939;28;20051;-70
2021/04/16 07:15:41;;;;;;;5.55;1.77;;;14.20;52.20;;;;;;4942159;28;20118;-69
2021/04/16 07:18:11;;;;;;;4.82;1.48;;;14.20;50.90;;;;;;4955286;28;20063;-67
2021/04/16 07:20:36;;;;;;;4.78;1.27;;;14.20;51.20;;;;;;4942789;28;20045;-68
2021/04/16 07:23:02;;;;;;;8.18;2.30;;;14.20;50.80;;;;;;4939692;28;20380;-68
2021/04/16 07:25:57;;;;;;;8.73;1.83;;;14.20;51.00;;;;;;4941908;28;20036;-64
2021/04/16 07:28:29;;;;;;;12.40;2.10;;;14.40;51.20;;;;;;4935080;28;20077;-64
2021/04/16 07:30:55;;;;;;;9.68;2.20;;;14.50;50.50;;;;;;4941953;28;20367;-65
2021/04/16 07:33:29;;;;;;;14.98;3.30;;;14.60;49.50;;;;;;4941639;28;20043;-68
2021/04/16 07:36:31;;;;;;;15.05;3.40;;;14.70;49.30;;;;;;4941457;28;20111;-66
2021/04/16 07:39:00;;;;;;;5.03;1.50;;;14.80;49.50;;;;;;4942662;28;20116;-63
2021/04/16 07:41:30;;;;;;;4.32;1.48;;;14.90;47.90;;;;;;4941199;28;20497;-65
2021/04/16 07:43:59;;;;;;;6.55;1.70;;;14.90;46.50;;;;;;4939504;28;20170;-65
2021/04/16 07:46:27;;;;;;;6.28;1.90;;;14.90;45.90;;;;;;4939585;28;22315;-64
2021/04/16 07:49:14;;;;;;;3.65;1.35;;;14.90;45.40;;;;;;4940134;28;20039;-63
2021/04/16 07:51:46;;;;;;;7.72;1.80;;;14.80;44.80;;;;;;4939206;28;20073;-64
2021/04/16 07:54:14;;;;;;;5.50;1.70;;;14.70;45.30;;;;;;4940818;28;20407;-64
2021/04/16 07:56:42;;;;;;;2.85;1.10;;;14.70;44.90;;;;;;4942379;28;20044;-64
2021/04/16 07:59:11;;;;;;;4.30;1.48;;;14.70;44.50;;;;;;4939130;28;20130;-65
2021/04/16 08:01:45;;;;;;;5.28;1.35;;;14.60;44.10;;;;;;4940835;28;21945;-63
2021/04/16 08:04:33;;;;;;;2.88;1.02;;;14.60;44.10;;;;;;4941000;28;20044;-64
2021/04/16 08:07:29;;;;;;;4.10;1.20;;;14.60;41.90;;;;;;4939966;28;20130;-63
2021/04/16 08:09:56;;;;;;;3.47;1.05;;;14.40;42.10;;;;;;4940135;28;20262;-63
2021/04/16 08:12:26;;;;;;;3.33;1.50;;;14.30;42.80;;;;;;4941578;28;20097;-62
2021/04/16 08:15:19;;;;;;;4.63;1.75;;;14.20;42.70;;;;;;4939605;28;20420;-62
2021/04/16 08:17:44;;;;;;;3.17;1.20;;;14.20;42.80;;;;;;4939652;28;20038;-62
2021/04/16 08:20:29;;;;;;;4.00;1.30;;;14.20;42.90;;;;;;4940623;28;20040;-63
2021/04/16 08:22:55;;;;;;;3.10;1.50;;;14.20;42.80;;;;;;4941259;28;20047;-63
2021/04/16 08:25:33;;;;;;;3.85;1.50;;;14.10;43.20;;;;;;4937460;28;20040;-62
2021/04/16 08:28:07;;;;;;;4.75;1.52;;;14.00;44.10;;;;;;4939241;28;20040;-62
2021/04/16 08:30:56;;;;;;;4.63;1.63;;;13.90;44.30;;;;;;4943669;28;20024;-62
2021/04/16 08:33:32;;;;;;;3.65;1.65;;;13.90;44.90;;;;;;4941160;28;20039;-63
2021/04/16 08:36:31;;;;;;;4.22;1.50;;;14.00;44.40;;;;;;4940147;28;20054;-62
2021/04/16 08:39:27;;;;;;;6.05;2.17;;;14.00;44.00;;;;;;4941185;28;20057;-63
2021/04/16 08:42:16;;;;;;;3.42;1.48;;;13.90;44.10;;;;;;4941002;28;20141;-63
2021/04/16 08:44:55;;;;;;;5.15;2.00;;;13.70;44.90;;;;;;4939483;28;20044;-65
2021/04/16 08:47:26;;;;;;;5.18;2.88;;;13.70;45.50;;;;;;4939654;28;20047;-65
2021/04/16 08:49:54;;;;;;;4.00;2.03;;;13.80;46.70;;;;;;4940993;28;20603;-66
2021/04/16 08:52:33;;;;;;;7.65;2.10;;;13.90;46.80;;;;;;4939521;28;20111;-66
2021/04/16 08:55:23;;;;;;;5.68;2.05;;;14.00;47.00;;;;;;4940192;28;20482;-67
2021/04/16 08:58:26;;;;;;;4.88;2.20;;;14.00;47.10;;;;;;4939470;28;20035;-67
2021/04/16 09:01:13;;;;;;;8.00;1.80;;;14.00;47.90;;;;;;4941719;28;20051;-68
2021/04/16 09:03:54;;;;;;;6.95;2.05;;;14.00;48.70;;;;;;4943840;28;20058;-71
2021/04/16 09:06:32;;;;;;;6.40;2.63;;;14.00;48.90;;;;;;4943606;28;20047;-71
2021/04/16 09:09:04;;;;;;;7.68;2.50;;;14.00;49.20;;;;;;4945454;28;20094;-70
2021/04/16 09:11:42;;;;;;;12.67;2.53;;;13.90;49.50;;;;;;4947124;28;22258;-76
2021/04/16 09:14:27;;;;;;;12.40;2.88;;;13.90;49.80;;;;;;4947618;28;20098;-75
2021/04/16 09:17:02;;;;;;;11.02;3.92;;;14.00;50.20;;;;;;4944776;28;20356;-73
2021/04/16 09:19:28;;;;;;;7.40;2.40;;;14.00;50.20;;;;;;4947983;28;20036;-74
2021/04/16 09:22:06;;;;;;;7.85;2.65;;;14.00;50.30;;;;;;4944835;28;20047;-71
2021/04/16 09:24:56;;;;;;;7.53;2.58;;;14.00;50.70;;;;;;4942658;28;20227;-67
2021/04/16 09:27:35;;;;;;;8.15;2.63;;;14.10;50.80;;;;;;4958345;28;20043;-71
2021/04/16 09:30:06;;;;;;;5.72;2.38;;;14.10;50.80;;;;;;4941879;28;20042;-71
2021/04/16 09:32:32;;;;;;;6.82;3.30;;;14.10;51.00;;;;;;4943930;28;20467;-70
2021/04/16 09:35:00;;;;;;;6.40;3.17;;;14.10;50.90;;;;;;4943439;28;20042;-70
2021/04/16 09:37:36;;;;;;;8.05;2.92;;;14.20;50.90;;;;;;4945901;28;20043;-76
2021/04/16 09:40:18;;;;;;;7.30;2.90;;;14.20;50.90;;;;;;4960145;28;20035;-66
2021/04/16 09:43:18;;;;;;;5.80;2.45;;;14.10;51.10;;;;;;4945233;28;20044;-67
2021/04/16 09:45:49;;;;;;;11.60;3.10;;;14.10;51.00;;;;;;4941558;28;20059;-71
2021/04/16 09:48:17;;;;;;;10.75;3.13;;;14.10;51.20;;;;;;4942196;28;20067;-70
2021/04/16 09:50:46;;;;;;;7.80;2.78;;;14.10;51.30;;;;;;4943246;28;20058;-71
2021/04/16 09:53:20;;;;;;;8.85;2.83;;;14.10;51.40;;;;;;4942675;28;20051;-68
2021/04/16 09:58:32;;;;;;;8.88;3.00;;;14.10;51.30;;;;;;4943881;28;20390;-67
2021/04/16 10:00:58;;;;;;;7.80;2.72;;;14.00;51.70;;;;;;4943373;28;20044;-67
2021/04/16 10:03:37;;;;;;;6.93;2.88;;;14.00;52.20;;;;;;4942717;28;20044;-67
2021/04/16 10:06:28;;;;;;;7.88;3.15;;;14.00;52.30;;;;;;4941835;28;20120;-66
2021/04/16 10:09:09;;;;;;;7.35;2.63;;;13.80;52.40;;;;;;4942961;28;20047;-67
2021/04/16 10:11:35;;;;;;;9.13;2.90;;;13.70;52.50;;;;;;4942787;28;20123;-67
2021/04/16 10:14:21;;;;;;;10.73;2.88;;;13.50;53.00;;;;;;4942776;28;20410;-66
2021/04/16 10:17:15;;;;;;;8.90;2.58;;;13.40;53.10;;;;;;4942635;28;20067;-67
2021/04/16 10:19:49;;;;;;;8.95;3.08;;;13.30;53.40;;;;;;4943041;28;20043;-67
2021/04/16 10:22:24;;;;;;;8.65;2.78;;;13.30;52.70;;;;;;4942305;28;20035;-67
2021/04/16 10:38:22;;;;;;;10.48;2.75;;;13.20;53.60;;;;;;4942335;28;20197;-66
2021/04/16 12:40:20;;;;;;;13.13;4.82;;;12.00;60.80;;;;;;4939677;28;20062;-63
2021/04/16 12:42:47;;;;;;;14.70;5.40;;;12.00;60.50;;;;;;4939666;28;20039;-63
2021/04/16 12:45:14;;;;;;;14.13;4.85;;;11.90;60.60;;;;;;4954726;28;20045;-62
2021/04/16 12:47:40;;;;;;;12.88;4.78;;;11.90;61.20;;;;;;4940350;28;20436;-63
2021/04/16 12:50:07;;;;;;;14.25;4.85;;;11.90;61.40;;;;;;4939254;28;20043;-64
2021/04/16 12:52:33;;;;;;;12.38;4.63;;;12.00;61.60;;;;;;4953416;28;20039;-64
2021/04/16 12:54:59;;;;;;;16.30;5.00;;;12.10;61.50;;;;;;4939455;28;20054;-63
2021/04/16 12:57:42;;;;;;;15.57;5.47;;;12.10;60.90;;;;;;4940214;28;20523;-64
2021/04/16 13:00:09;;;;;;;11.88;5.13;;;12.10;60.80;;;;;;4938107;28;20051;-61
2021/04/16 13:02:36;;;;;;;12.80;5.40;;;12.10;61.10;;;;;;4939856;28;20503;-62
2021/04/16 13:05:07;;;;;;;15.68;4.85;;;12.00;60.70;;;;;;4940102;28;20500;-62
2021/04/16 13:07:33;;;;;;;13.27;5.60;;;12.00;60.90;;;;;;4938702;28;20031;-63
2021/04/16 13:09:59;;;;;;;14.15;5.55;;;12.00;60.20;;;;;;4940154;28;20039;-62
2021/04/16 13:12:25;;;;;;;22.67;6.43;;;11.90;60.10;;;;;;4940310;28;20527;-63
2021/04/16 13:14:51;;;;;;;17.63;6.55;;;11.90;60.30;;;;;;4939577;28;20043;-62
2021/04/16 13:17:23;;;;;;;14.18;5.97;;;11.90;60.60;;;;;;4939591;28;20042;-62
2021/04/16 13:19:50;;;;;;;14.07;5.72;;;11.90;60.50;;;;;;4940346;28;20039;-62
2021/04/16 13:22:19;;;;;;;15.32;5.43;;;11.90;60.70;;;;;;4940903;28;20502;-62
2021/04/16 13:24:47;;;;;;;17.13;5.05;;;11.90;60.70;;;;;;4953420;28;20044;-61
2021/04/16 13:27:28;;;;;;;17.13;5.45;;;11.80;60.50;;;;;;4941154;28;20040;-62
2021/04/16 13:29:54;;;;;;;8.27;4.53;;;11.80;60.90;;;;;;4939788;28;20054;-67
2021/04/16 13:32:23;;;;;;;11.63;5.45;;;11.80;60.90;;;;;;4939470;28;20945;-68
2021/04/16 13:34:50;;;;;;;11.18;5.32;;;11.70;60.80;;;;;;4939842;28;20055;-71
2021/04/16 13:37:20;;;;;;;12.05;5.50;;;11.60;60.80;;;;;;4938811;28;20039;-68
2021/04/16 13:39:48;;;;;;;12.77;5.22;;;11.60;61.40;;;;;;4941079;28;20036;-69
2021/04/16 13:42:15;;;;;;;15.20;5.22;;;11.60;61.50;;;;;;4937248;28;20079;-64
2021/04/16 13:44:40;;;;;;;10.15;4.68;;;11.50;61.20;;;;;;4937587;28;20040;-64
2021/04/16 13:47:09;;;;;;;8.60;4.85;;;11.40;61.00;;;;;;4940557;28;20042;-64
2021/04/16 13:49:38;;;;;;;9.57;4.57;;;11.40;61.00;;;;;;4943692;28;20035;-62
2021/04/16 13:52:05;;;;;;;12.45;5.47;;;11.40;61.00;;;;;;4943020;28;20067;-63
2021/04/16 13:54:33;;;;;;;10.40;4.65;;;11.30;61.40;;;;;;4955379;28;20144;-64
2021/04/16 13:56:59;;;;;;;16.17;4.95;;;11.40;61.60;;;;;;4942231;28;20036;-64
2021/04/16 13:59:25;;;;;;;11.75;4.57;;;11.20;61.30;;;;;;4943724;28;20039;-64
2021/04/16 14:01:53;;;;;;;12.27;6.43;;;11.20;61.40;;;;;;4941823;28;20044;-63
2021/04/16 14:04:24;;;;;;;11.00;4.85;;;11.20;61.70;;;;;;4943795;28;20054;-63
2021/04/16 14:06:50;;;;;;;10.90;5.25;;;11.20;61.90;;;;;;4943225;28;20126;-63
2021/04/16 14:09:20;;;;;;;11.82;4.88;;;11.20;61.90;;;;;;4943086;28;20024;-62
2021/04/16 14:11:46;;;;;;;12.05;5.20;;;11.10;61.90;;;;;;4941954;28;20043;-62
2021/04/16 14:14:23;;;;;;;12.05;5.10;;;11.10;61.30;;;;;;4942715;28;20036;-63
2021/04/16 14:16:49;;;;;;;11.07;4.70;;;11.10;61.50;;;;;;4943219;28;20042;-62
2021/04/16 14:19:21;;;;;;;14.00;5.30;;;11.10;62.00;;;;;;4942929;28;20497;-62
2021/04/16 14:21:50;;;;;;;10.45;4.70;;;11.00;62.00;;;;;;4943683;28;20836;-62
2021/04/16 14:24:16;;;;;;;9.73;4.75;;;11.00;61.80;;;;;;4941899;28;20051;-63
2021/04/16 14:26:46;;;;;;;9.30;5.40;;;11.00;61.70;;;;;;4941932;28;20483;-62
2021/04/16 14:29:12;;;;;;;11.48;5.45;;;11.00;61.40;;;;;;4941983;28;20039;-63
2021/04/16 14:31:39;;;;;;;10.82;5.65;;;10.90;61.40;;;;;;4942563;28;20038;-68
2021/04/16 14:34:05;;;;;;;11.25;5.50;;;10.90;62.00;;;;;;4940856;28;20048;-69
2021/04/16 14:36:32;;;;;;;13.20;4.80;;;10.90;62.00;;;;;;4942423;28;20050;-69
2021/04/16 14:38:58;;;;;;;11.32;5.38;;;10.90;61.50;;;;;;4943037;28;20067;-68
2021/04/16 14:41:28;;;;;;;10.90;5.07;;;10.90;61.60;;;;;;4942430;28;20145;-67
2021/04/16 14:43:54;;;;;;;10.13;5.50;;;10.90;61.60;;;;;;4941748;28;20388;-68
2021/04/16 14:46:19;;;;;;;12.00;5.00;;;10.80;61.50;;;;;;4943158;28;20828;-67
2021/04/16 14:48:45;;;;;;;10.80;5.70;;;10.80;61.80;;;;;;4955851;28;20062;-67
2021/04/16 14:51:11;;;;;;;13.77;5.90;;;10.80;61.60;;;;;;4955544;28;20142;-68
2021/04/16 14:53:42;;;;;;;12.02;6.28;;;10.80;61.40;;;;;;4941918;28;20038;-67
2021/04/16 14:56:11;;;;;;;13.40;6.20;;;10.80;61.80;;;;;;4943597;28;20074;-66
2021/04/16 14:58:40;;;;;;;13.20;6.63;;;10.70;61.60;;;;;;4940821;28;20090;-64
2021/04/16 15:01:10;;;;;;;10.57;6.07;;;10.70;61.40;;;;;;4940581;28;20052;-64
2021/04/16 15:03:36;;;;;;;11.07;6.38;;;10.70;61.80;;;;;;4941365;28;20399;-64
2021/04/16 15:06:03;;;;;;;9.68;5.55;;;10.60;61.90;;;;;;4941583;28;20035;-63
2021/04/16 15:08:38;;;;;;;12.40;7.00;;;10.60;62.00;;;;;;4938536;28;20031;-62
2021/04/16 15:11:07;;;;;;;10.15;5.90;;;10.60;62.30;;;;;;4940046;28;20035;-69
2021/04/16 15:13:35;;;;;;;9.27;5.30;;;10.60;62.40;;;;;;4942875;28;20047;-69
2021/04/16 15:16:04;;;;;;;14.48;6.07;;;10.60;62.40;;;;;;4940248;28;20035;-68